Terminal Aerodrome Forecast
Issued by NWS

Home | Current Version | Previous Version | Text Only | Print | Product List | Glossary On
Versions: 1 2 3 4 5 6 7 8 9 10 11 12 13
000
FTUS42 KTBW 230543
TAFLAL
TAF
KLAL 230543Z 2306/2406 05003KT P6SM SCT250
     FM231400 07008KT P6SM SCT035 SCT250
     FM232000 07011KT P6SM VCTS BKN050CB BKN100
     FM240100 07013KT P6SM SCT050 SCT100 BKN250
      AMD NOT SKED TIL 231200=

USA.gov is the U.S. government's official web portal to all federal, state and local government web resources and services.